Pearcot, Washington
Current Conditions -  °F | °C
As of 9:55 PM on Thursday 27 Nov 2014 (Local Time) from KEAT Reporting Station
Clear Clear  
Wind Chill: 44°   Ceiling: Unl
Heat Index: 48°   Visibility: NA
Dew Point: 39°   Wind: 8mph
Humidity: 71%   Direction: 80°E
Pressure: 29.66"   Gusts: NA
Location:  47.3635°N, 120.348°W
Report Text: KEAT 280555Z AUTO 08007KT CLR 09/04 A2966 RMK AO2 SLP048 T00890039 10133 20083 58010
Loading
Personal Weather Stations






























Interactive Weather Map New forecast layout! Learn more

10-Day Weather Forecast

Advertisements
Track Severe Weather on mobile